Time;durP1;ratioP1;P1;durP2;ratioP2;P2;SDS_P1;SDS_P2;PMS_P1;PMS_P2;Temp;Humidity;BMP_temperature;BMP_pressure;BME280_temperature;BME280_humidity;BME280_pressure;Samples;Min_cycle;Max_cycle;Signal;HPM_P1;HPM_P2
2023/01/27 00:03:31;;;;;;;72.80;24.37;;;;;;;1.11;100.00;101150.32;5196619;54;1140880;-69
2023/01/27 00:08:36;;;;;;;60.10;22.20;;;;;;;0.99;100.00;101160.20;5217159;54;1141024;-67
2023/01/27 00:13:42;;;;;;;53.35;17.82;;;;;;;0.93;100.00;101152.55;5153856;54;1220473;-66
2023/01/27 00:18:48;;;;;;;57.38;19.82;;;;;;;0.90;100.00;101154.41;5160104;54;1141041;-71
2023/01/27 00:29:17;;;;;;;63.25;21.02;;;;;;;0.96;100.00;101146.40;5128864;55;1140825;-68
2023/01/27 00:34:23;;;;;;;68.83;20.23;;;;;;;0.96;100.00;101146.40;5161355;56;1140790;-68
2023/01/27 00:39:29;;;;;;;42.30;15.63;;;;;;;0.98;100.00;101158.48;5162496;56;1140842;-68
2023/01/27 00:44:35;;;;;;;42.73;14.83;;;;;;;0.92;100.00;101169.06;5168424;55;1141033;-67
2023/01/27 00:49:40;;;;;;;55.35;17.52;;;;;;;0.88;100.00;101168.77;5183391;55;1140860;-67
2023/01/27 00:54:46;;;;;;;50.80;17.40;;;;;;;0.86;100.00;101173.59;5270656;54;1140976;-70
2023/01/27 00:59:52;;;;;;;57.65;18.87;;;;;;;0.83;100.00;101178.88;5272820;54;1140960;-69
2023/01/27 01:04:58;;;;;;;51.97;19.53;;;;;;;0.82;100.00;101176.73;5103932;57;1140925;-68
2023/01/27 01:10:04;;;;;;;56.60;22.75;;;;;;;0.82;100.00;101182.38;5251784;54;1140992;-69
2023/01/27 01:15:10;;;;;;;56.33;20.17;;;;;;;0.81;100.00;101184.12;5123589;55;1140867;-68
2023/01/27 01:20:16;;;;;;;67.27;26.40;;;;;;;0.77;100.00;101185.09;5203365;55;1140814;-67
2023/01/27 01:25:23;;;;;;;67.93;21.93;;;;;;;0.77;100.00;101180.34;5133982;55;1141034;-69
2023/01/27 01:30:30;;;;;;;61.67;20.40;;;;;;;0.75;100.00;101178.25;5153438;55;1140836;-67
2023/01/27 01:35:38;;;;;;;56.57;20.10;;;;;;;0.75;100.00;101180.86;5216272;55;1141064;-67
2023/01/27 01:40:46;;;;;;;68.07;22.33;;;;;;;0.71;100.00;101178.77;5119501;55;1140867;-69
2023/01/27 01:45:57;;;;;;;65.80;23.57;;;;;;;0.70;100.00;101181.83;5182270;55;1140969;-66
2023/01/27 01:51:21;;;;;;;66.43;23.20;;;;;;;0.75;100.00;101177.80;5194958;55;1141015;-70
2023/01/27 01:56:34;;;;;;;63.97;21.63;;;;;;;0.73;100.00;101171.78;5181743;54;1140788;-70
2023/01/27 02:01:40;;;;;;;70.32;24.95;;;;;;;0.76;100.00;101173.01;5195470;55;1140938;-68
2023/01/27 02:07:08;;;;;;;65.13;24.20;;;;;;;0.75;100.00;101172.59;5179785;55;1140922;-67
2023/01/27 02:12:14;;;;;;;65.57;23.83;;;;;;;0.72;100.00;101172.67;5207187;55;1140878;-70
2023/01/27 02:17:20;;;;;;;61.33;22.63;;;;;;;0.73;100.00;101184.80;5186263;55;1140874;-67
2023/01/27 02:22:36;;;;;;;61.43;20.93;;;;;;;0.75;100.00;101188.22;5134831;55;1140830;-69
2023/01/27 02:27:44;;;;;;;64.15;22.82;;;;;;;0.75;100.00;101192.57;5105572;56;1140932;-67
2023/01/27 02:32:51;;;;;;;59.23;19.30;;;;;;;0.75;100.00;101191.27;5118536;56;1141032;-67
2023/01/27 02:37:58;;;;;;;60.30;22.43;;;;;;;0.73;100.00;101196.52;5122221;56;1140959;-68
2023/01/27 02:43:05;;;;;;;44.07;17.60;;;;;;;0.74;100.00;101185.66;5121521;56;1140934;-70
2023/01/27 02:48:11;;;;;;;53.60;21.33;;;;;;;0.64;100.00;101194.98;5138109;55;1140812;-67
2023/01/27 02:53:17;;;;;;;49.10;19.70;;;;;;;0.60;100.00;101195.12;5149684;55;1140730;-69
2023/01/27 02:58:23;;;;;;;49.70;20.73;;;;;;;0.61;100.00;101201.56;5121834;56;1141000;-69
2023/01/27 03:03:34;;;;;;;52.48;19.87;;;;;;;0.63;100.00;101204.98;5149358;55;1140887;-69
2023/01/27 03:08:40;;;;;;;58.38;21.33;;;;;;;0.61;100.00;101204.17;5208300;55;1141015;-69
2023/01/27 03:13:46;;;;;;;62.90;24.80;;;;;;;0.59;100.00;101205.98;5191125;55;1141111;-70
2023/01/27 03:18:55;;;;;;;48.47;20.83;;;;;;;0.62;100.00;101192.87;5122348;55;1140906;-66
2023/01/27 03:24:00;;;;;;;48.00;18.80;;;;;;;0.66;100.00;101200.16;5147869;55;1140796;-68
2023/01/27 03:34:30;;;;;;;60.15;22.30;;;;;;;0.70;100.00;101201.34;5122788;55;1140857;-69
2023/01/27 03:50:36;;;;;;;65.10;24.27;;;;;;;0.74;100.00;101196.92;5137891;54;973915;-70
2023/01/27 03:55:37;;;;;;;158.97;69.33;;;;;;;0.70;100.00;101196.59;5141953;55;1138737;-70
2023/01/27 04:00:43;;;;;;;92.98;31.02;;;;;;;0.72;100.00;101201.31;5123982;55;1142954;-69
2023/01/27 04:16:38;;;;;;;60.53;21.63;;;;;;;0.67;100.00;101198.81;5208931;55;1141065;-69
2023/01/27 04:21:44;;;;;;;67.27;25.70;;;;;;;0.63;100.00;101204.98;5169975;55;1140837;-69
2023/01/27 04:26:56;;;;;;;100.95;34.13;;;;;;;0.57;100.00;101210.81;5121657;55;1141033;-70
2023/01/27 04:32:04;;;;;;;86.33;31.13;;;;;;;0.53;100.00;101216.98;5131166;55;1143261;-71
2023/01/27 04:37:11;;;;;;;75.40;28.67;;;;;;;0.55;100.00;101223.86;5122059;55;1140990;-70
2023/01/27 04:42:17;;;;;;;82.30;31.43;;;;;;;0.50;100.00;101224.42;5122665;55;1140827;-69
2023/01/27 04:47:23;;;;;;;61.67;24.30;;;;;;;0.51;100.00;101235.23;5226047;54;1140972;-66
2023/01/27 04:52:29;;;;;;;72.23;28.73;;;;;;;0.53;100.00;101240.41;5210085;54;1140931;-69
2023/01/27 04:57:35;;;;;;;71.30;26.17;;;;;;;0.62;100.00;101241.47;5157471;54;1140909;-69
2023/01/27 05:02:40;;;;;;;52.15;19.27;;;;;;;0.67;100.00;101241.77;5159725;54;1140779;-68
2023/01/27 05:07:46;;;;;;;62.90;23.98;;;;;;;0.66;100.00;101245.71;5177137;54;1140768;-66
2023/01/27 05:12:52;;;;;;;66.42;22.27;;;;;;;0.65;100.00;101248.76;5210271;54;1140960;-69
2023/01/27 05:17:58;;;;;;;71.65;25.40;;;;;;;0.70;100.00;101246.05;5230261;54;1140777;-70
2023/01/27 05:28:28;;;;;;;67.57;24.13;;;;;;;0.78;100.00;101245.39;5230039;54;1140981;-67
2023/01/27 05:33:35;;;;;;;60.43;23.27;;;;;;;0.85;100.00;101253.91;5254356;54;1140830;-68
2023/01/27 05:38:42;;;;;;;60.12;24.35;;;;;;;0.84;100.00;101256.96;5187792;55;1148839;-68
2023/01/27 05:43:53;;;;;;;54.90;21.33;;;;;;;0.88;100.00;101256.44;5200942;54;1140797;-70
2023/01/27 05:49:05;;;;;;;101.75;33.18;;;;;;;0.84;100.00;101258.27;5245842;54;1140890;-69
2023/01/27 05:54:12;;;;;;;76.13;26.07;;;;;;;0.81;100.00;101266.59;5206551;54;1142929;-70
2023/01/27 05:59:18;;;;;;;60.73;22.90;;;;;;;0.85;100.00;101268.23;5214709;54;1140743;-68
2023/01/27 06:04:24;;;;;;;59.50;23.47;;;;;;;0.84;100.00;101267.37;5185834;54;1140910;-69
2023/01/27 06:09:30;;;;;;;62.00;23.97;;;;;;;0.80;100.00;101260.53;5208570;54;1140802;-69
2023/01/27 06:14:36;;;;;;;60.77;21.20;;;;;;;0.82;100.00;101261.80;5188427;54;1140736;-70
2023/01/27 06:19:41;;;;;;;62.93;24.17;;;;;;;0.77;100.00;101268.41;5184329;54;1140999;-67
2023/01/27 06:24:47;;;;;;;54.18;21.45;;;;;;;0.75;100.00;101274.13;5189560;54;1140891;-70
2023/01/27 06:29:53;;;;;;;71.03;25.33;;;;;;;0.74;100.00;101268.52;5228894;54;1140867;-70
2023/01/27 06:34:59;;;;;;;62.37;22.07;;;;;;;0.68;100.00;101267.36;5208286;54;1141046;-71
2023/01/27 06:40:06;;;;;;;54.50;21.87;;;;;;;0.68;100.00;101281.67;5258322;54;1140977;-70
2023/01/27 06:45:14;;;;;;;50.33;20.87;;;;;;;0.75;100.00;101279.34;5274623;54;1140873;-71
2023/01/27 06:50:20;;;;;;;50.47;19.83;;;;;;;0.81;100.00;101277.86;5184559;54;1140918;-68
2023/01/27 06:55:26;;;;;;;57.93;19.90;;;;;;;0.81;100.00;101275.27;5185032;54;1140820;-69
2023/01/27 07:00:32;;;;;;;56.15;20.40;;;;;;;0.82;100.00;101285.23;5230105;54;1140867;-70
2023/01/27 07:05:40;;;;;;;62.15;21.23;;;;;;;0.84;100.00;101287.35;5228651;54;1140815;-70
2023/01/27 07:10:45;;;;;;;70.17;25.93;;;;;;;0.86;100.00;101288.17;5231421;54;1140825;-69
2023/01/27 07:15:55;;;;;;;76.37;26.70;;;;;;;0.88;100.00;101283.34;5202038;54;1140997;-71
2023/01/27 07:21:06;;;;;;;74.27;26.27;;;;;;;0.92;100.00;101300.57;5260208;54;1140730;-69
2023/01/27 07:26:12;;;;;;;51.83;18.93;;;;;;;0.93;100.00;101302.28;5187764;54;1140947;-68
2023/01/27 07:31:19;;;;;;;43.20;15.50;;;;;;;0.95;100.00;101301.80;5185018;55;1140926;-69
2023/01/27 07:36:25;;;;;;;39.43;13.97;;;;;;;0.88;100.00;101298.11;5263700;54;1140843;-69
2023/01/27 07:41:31;;;;;;;41.67;15.50;;;;;;;0.83;100.00;101307.77;5222918;54;1140978;-67
2023/01/27 07:46:36;;;;;;;43.37;17.67;;;;;;;0.72;100.00;101322.37;5185713;54;1140907;-70
2023/01/27 07:51:43;;;;;;;45.87;18.63;;;;;;;0.69;100.00;101322.44;5234997;54;1140927;-71
2023/01/27 07:56:49;;;;;;;39.30;17.20;;;;;;;0.76;100.00;101327.92;5191193;54;1140761;-68
2023/01/27 08:01:55;;;;;;;31.12;14.50;;;;;;;0.82;100.00;101332.95;5188822;54;1141022;-71
2023/01/27 08:07:03;;;;;;;37.83;15.83;;;;;;;0.79;100.00;101334.77;5229577;54;1141014;-69
2023/01/27 08:12:09;;;;;;;32.58;15.28;;;;;;;0.81;100.00;101337.75;5197564;54;1140829;-70
2023/01/27 08:17:14;;;;;;;41.03;16.47;;;;;;;0.84;100.00;101341.59;5186542;55;1141001;-69
2023/01/27 08:22:20;;;;;;;54.10;24.77;;;;;;;0.89;100.00;101340.19;5206731;55;1140933;-68
2023/01/27 08:27:27;;;;;;;42.80;18.27;;;;;;;0.96;100.00;101345.63;5190686;54;1140908;-68
2023/01/27 08:32:34;;;;;;;46.73;18.40;;;;;;;0.98;100.00;101351.66;5195410;54;1140737;-70
2023/01/27 08:37:40;;;;;;;46.58;17.77;;;;;;;0.96;100.00;101355.61;5214359;55;1140930;-69
2023/01/27 08:42:46;;;;;;;41.67;18.73;;;;;;;0.97;100.00;101369.04;5170989;54;1141034;-68
2023/01/27 08:47:52;;;;;;;43.00;18.03;;;;;;;0.97;100.00;101375.99;5202551;54;1140776;-69
2023/01/27 08:53:03;;;;;;;46.30;18.85;;;;;;;0.98;100.00;101379.87;5214399;54;1140706;-70
2023/01/27 08:58:09;;;;;;;44.37;18.27;;;;;;;0.99;100.00;101373.77;5198141;54;1140767;-67
2023/01/27 09:03:17;;;;;;;48.47;19.17;;;;;;;1.04;100.00;101378.88;5215471;54;1140912;-68
2023/01/27 09:08:23;;;;;;;44.63;18.43;;;;;;;1.11;100.00;101380.86;5224479;54;1140809;-70
2023/01/27 09:13:29;;;;;;;38.37;18.43;;;;;;;1.21;100.00;101387.58;5210116;54;1140867;-68
2023/01/27 09:18:35;;;;;;;52.00;22.13;;;;;;;1.25;100.00;101391.34;5209372;54;1141041;-68
2023/01/27 09:23:41;;;;;;;47.47;19.93;;;;;;;1.27;100.00;101393.91;5230994;54;1140946;-70
2023/01/27 09:28:47;;;;;;;40.98;16.97;;;;;;;1.31;100.00;101399.02;5203438;54;1140843;-71
2023/01/27 09:33:53;;;;;;;45.58;18.37;;;;;;;1.37;100.00;101391.50;5181137;54;1140963;-69
2023/01/27 09:39:04;;;;;;;51.83;19.90;;;;;;;1.37;100.00;101391.50;5229781;54;1140901;-68
2023/01/27 09:44:17;;;;;;;57.10;22.83;;;;;;;1.37;100.00;101403.23;5208474;54;1140923;-68
2023/01/27 09:49:48;;;;;;;35.33;16.90;;;;;;;1.40;100.00;101409.64;5192770;54;1140892;-68
2023/01/27 09:55:10;;;;;;;43.95;18.87;;;;;;;1.35;100.00;101402.41;5191332;54;1140970;-69
2023/01/27 10:00:38;;;;;;;35.95;16.95;;;;;;;1.33;100.00;101420.69;5229801;54;1140827;-69
2023/01/27 10:06:09;;;;;;;38.50;17.70;;;;;;;1.26;100.00;101407.83;5218312;54;1146139;-70
2023/01/27 10:11:34;;;;;;;48.23;18.07;;;;;;;1.20;100.00;101414.52;5203158;54;1140937;-69
2023/01/27 10:16:51;;;;;;;46.03;20.07;;;;;;;1.15;100.00;101412.47;5205590;54;1140931;-70
2023/01/27 10:22:05;;;;;;;52.95;22.80;;;;;;;1.13;100.00;101413.80;5196194;54;1140954;-67
2023/01/27 10:27:21;;;;;;;47.50;18.90;;;;;;;1.12;100.00;101429.02;5224720;54;1140998;-70
2023/01/27 10:32:36;;;;;;;58.63;23.40;;;;;;;1.11;100.00;101431.66;5182129;54;1141014;-66
2023/01/27 10:38:03;;;;;;;55.70;23.07;;;;;;;1.09;100.00;101434.30;5206204;54;1141037;-70
2023/01/27 10:43:35;;;;;;;47.53;20.60;;;;;;;1.04;100.00;101440.95;5175971;54;1141043;-70
2023/01/27 10:49:03;;;;;;;46.17;20.80;;;;;;;1.05;100.00;101441.36;5215475;54;1140971;-68
2023/01/27 10:54:19;;;;;;;45.20;19.60;;;;;;;0.98;100.00;101446.73;5223480;54;1140800;-70
2023/01/27 10:59:50;;;;;;;40.17;19.30;;;;;;;0.97;100.00;101458.03;5217514;54;1140772;-67
2023/01/27 11:05:00;;;;;;;52.07;23.40;;;;;;;0.96;100.00;101466.30;5202599;54;1141094;-68
2023/01/27 11:10:16;;;;;;;51.33;21.50;;;;;;;0.92;100.00;101475.06;5215706;54;1140752;-69
2023/01/27 11:15:34;;;;;;;52.27;22.40;;;;;;;0.95;100.00;101480.66;5198932;54;1140820;-70
2023/01/27 11:20:49;;;;;;;45.83;20.47;;;;;;;0.95;100.00;101467.63;5192937;54;1140950;-68
2023/01/27 11:26:36;;;;;;;49.73;18.65;;;;;;;0.88;100.00;101466.08;5184260;55;1140934;-68
2023/01/27 11:31:49;;;;;;;52.33;22.87;;;;;;;0.90;100.00;101472.11;5072654;55;1140899;-67
2023/01/27 11:36:54;;;;;;;;;;;;;;;0.87;100.00;101469.12;5020365;57;1141040;-66
2023/01/27 11:42:01;;;;;;;82.93;42.03;;;;;;;0.86;100.00;101475.66;5041488;57;973948;-67
2023/01/27 11:47:09;;;;;;;40.70;19.48;;;;;;;0.87;100.00;101473.47;5105833;56;1138717;-68
2023/01/27 11:52:19;;;;;;;52.83;22.20;;;;;;;0.93;100.00;101472.02;5072564;56;1141058;-67
2023/01/27 11:57:27;;;;;;;48.33;23.10;;;;;;;0.98;100.00;101472.33;5048959;56;1140907;-67
2023/01/27 12:02:53;;;;;;;47.13;19.90;;;;;;;1.06;100.00;101472.17;5054350;56;1140921;-68
2023/01/27 12:08:02;;;;;;;48.37;21.10;;;;;;;1.15;100.00;101466.73;5179866;54;1140925;-67
2023/01/27 12:13:24;;;;;;;49.63;21.20;;;;;;;1.18;100.00;101466.66;5274074;54;1140752;-68
2023/01/27 12:18:35;;;;;;;46.67;21.50;;;;;;;1.15;100.00;101468.03;5294638;54;1141064;-69
2023/01/27 12:23:51;;;;;;;43.23;18.67;;;;;;;1.15;100.00;101466.73;5072218;55;1141013;-70
2023/01/27 12:29:00;;;;;;;44.27;21.27;;;;;;;1.07;100.00;101462.61;5177643;55;1140981;-67
2023/01/27 12:34:10;;;;;;;60.37;26.57;;;;;;;1.07;100.00;101462.61;5171172;54;1140996;-69
2023/01/27 12:39:41;;;;;;;55.40;24.77;;;;;;;1.04;100.00;101468.30;5191493;55;1140936;-67
2023/01/27 12:44:48;;;;;;;49.43;21.33;;;;;;;1.09;100.00;101459.48;5119360;55;1152187;-67
2023/01/27 12:50:23;;;;;;;53.87;23.02;;;;;;;1.18;100.00;101461.45;5143856;55;1140973;-68
2023/01/27 12:55:35;;;;;;;69.40;30.47;;;;;;;1.26;100.00;101452.99;5162927;55;1140776;-71
2023/01/27 13:00:45;;;;;;;54.60;25.77;;;;;;;1.26;100.00;101450.38;5185492;55;1140803;-67
2023/01/27 13:05:57;;;;;;;67.30;27.48;;;;;;;1.26;100.00;101459.95;5056485;55;1140973;-70
2023/01/27 13:11:04;;;;;;;56.95;26.82;;;;;;;1.29;100.00;101462.05;5034151;56;1213615;-69
2023/01/27 13:16:30;;;;;;;52.97;24.70;;;;;;;1.34;100.00;101467.16;5130649;55;1140766;-67
2023/01/27 13:21:39;;;;;;;54.70;24.70;;;;;;;1.39;100.00;101474.39;5080484;56;1140983;-67
2023/01/27 13:26:46;;;;;;;57.27;24.55;;;;;;;1.40;100.00;101473.05;5102100;55;1140901;-69
2023/01/27 13:32:12;;;;;;;76.07;30.47;;;;;;;1.46;100.00;101472.05;5058993;56;1140915;-68
2023/01/27 13:37:44;;;;;;;68.23;33.27;;;;;;;1.53;100.00;101473.59;5111935;55;1176948;-67
2023/01/27 13:43:15;;;;;;;60.17;27.43;;;;;;;1.55;100.00;101474.87;5089019;54;1140950;-69
2023/01/27 13:48:31;;;;;;;69.00;30.13;;;;;;;1.60;100.00;101471.70;5086052;55;1140937;-73
2023/01/27 13:53:38;;;;;;;55.80;25.88;;;;;;;1.59;100.00;101474.77;5164824;54;1140859;-67
2023/01/27 13:58:54;;;;;;;52.33;24.90;;;;;;;1.59;100.00;101481.72;5205635;54;1248290;-69
2023/01/27 14:04:44;;;;;;;44.00;21.93;;;;;;;1.61;100.00;101482.55;5242745;54;1248039;-71
2023/01/27 14:10:19;;;;;;;29.98;15.38;;;;;;;1.61;100.00;101479.94;5231450;54;1256639;-70
2023/01/27 14:15:31;;;;;;;23.57;11.60;;;;;;;1.53;100.00;101477.51;5246986;54;1260018;-71
2023/01/27 14:20:42;;;;;;;25.03;14.30;;;;;;;1.52;100.00;101492.77;5250957;54;1141130;-68
2023/01/27 14:25:52;;;;;;;20.20;11.57;;;;;;;1.48;100.00;101487.22;5183962;55;1254673;-72
2023/01/27 14:31:03;;;;;;;28.27;14.87;;;;;;;1.45;100.00;101489.89;5190078;54;1178406;-67
2023/01/27 14:36:16;;;;;;;38.95;20.60;;;;;;;1.45;100.00;101492.50;5206496;55;1140821;-70
2023/01/27 14:41:34;;;;;;;29.60;13.97;;;;;;;1.48;100.00;101492.42;5129103;55;1256435;-69
2023/01/27 14:47:08;;;;;;;28.30;13.77;;;;;;;1.51;100.00;101497.58;5219673;54;1254511;-72
2023/01/27 14:52:40;;;;;;;21.40;11.30;;;;;;;1.48;100.00;101499.39;5170608;54;1246109;-68
2023/01/27 14:58:13;;;;;;;38.33;15.88;;;;;;;1.47;100.00;101503.75;5197804;54;1260162;-70
2023/01/27 15:03:47;;;;;;;56.13;22.47;;;;;;;1.41;100.00;101506.05;5131992;54;1140890;-68
2023/01/27 15:09:06;;;;;;;51.77;21.93;;;;;;;1.41;100.00;101509.09;5236637;54;1141078;-70
2023/01/27 15:14:34;;;;;;;26.40;14.00;;;;;;;1.34;100.00;101504.94;5222705;54;1141059;-71
2023/01/27 15:20:13;;;;;;;15.23;8.33;;;;;;;1.33;100.00;101504.08;5205718;54;1140960;-66
2023/01/27 15:25:32;;;;;;;18.60;7.73;;;;;;;1.35;100.00;101513.17;5187882;54;1138626;-70
2023/01/27 15:30:39;;;;;;;20.23;9.43;;;;;;;1.37;100.00;101515.30;5255439;54;1161310;-68
2023/01/27 15:35:45;;;;;;;27.77;9.83;;;;;;;1.37;100.00;101526.58;5056891;56;1138957;-69
2023/01/27 15:41:12;;;;;;;19.03;7.87;;;;;;;1.35;100.00;101514.48;5174573;54;1139001;-71
2023/01/27 15:46:30;;;;;;;22.13;9.80;;;;;;;1.34;100.00;101524.48;5194467;55;1138642;-71
2023/01/27 15:51:38;;;;;;;16.93;7.20;;;;;;;1.33;100.00;101527.54;5201075;55;1138770;-71
2023/01/27 15:56:52;;;;;;;10.47;5.63;;;;;;;1.30;100.00;101543.23;5102244;55;1139013;-68
2023/01/27 16:02:20;;;;;;;18.92;8.20;;;;;;;1.22;100.00;101541.72;5099099;55;1139189;-71
2023/01/27 16:07:32;;;;;;;12.40;6.72;;;;;;;1.14;100.00;101549.69;5108133;55;1138941;-70
2023/01/27 16:12:43;;;;;;;12.55;6.03;;;;;;;1.07;100.00;101560.30;5153991;55;1138937;-69
2023/01/27 16:18:09;;;;;;;14.63;6.90;;;;;;;1.03;100.00;101553.84;5074078;55;1138758;-69
2023/01/27 16:23:38;;;;;;;14.43;6.87;;;;;;;1.08;100.00;101558.92;5086401;55;1138768;-71
2023/01/27 16:28:47;;;;;;;29.53;14.10;;;;;;;1.05;100.00;101555.97;5102203;55;1138730;-68
2023/01/27 16:33:58;;;;;;;26.73;10.80;;;;;;;1.06;100.00;101559.44;5099928;55;1140751;-71
2023/01/27 16:39:27;;;;;;;40.80;20.17;;;;;;;1.09;100.00;101557.18;5096937;56;1140810;-70
2023/01/27 16:44:48;;;;;;;25.37;9.47;;;;;;;1.15;100.00;101556.61;5138305;55;1140821;-71
2023/01/27 16:49:59;;;;;;;23.67;8.43;;;;;;;1.13;100.00;101567.51;5176679;55;1138909;-68
2023/01/27 16:55:04;;;;;;;17.95;6.90;;;;;;;1.09;100.00;101572.37;5168322;55;1138817;-70
2023/01/27 17:00:31;;;;;;;10.60;5.20;;;;;;;1.03;100.00;101579.89;5180761;55;1139240;-68
2023/01/27 17:05:37;;;;;;;12.30;4.33;;;;;;;1.00;100.00;101592.11;5005750;56;1138832;-71
2023/01/27 17:11:08;;;;;;;43.05;15.55;;;;;;;0.93;100.00;101604.39;4996059;56;1139509;-72
2023/01/27 17:16:28;;;;;;;11.50;4.62;;;;;;;0.91;100.00;101606.20;5167300;54;1140941;-69
2023/01/27 17:21:45;;;;;;;12.25;4.85;;;;;;;0.86;100.00;101602.82;5154018;55;1138899;-70
2023/01/27 17:27:10;;;;;;;11.87;5.83;;;;;;;0.81;100.00;101608.55;5072929;55;1139120;-69
2023/01/27 17:32:28;;;;;;;6.73;3.53;;;;;;;0.74;100.00;101624.34;5150622;54;1138791;-73
2023/01/27 17:37:37;;;;;;;11.33;4.70;;;;;;;0.65;100.00;101624.06;5199842;54;1137288;-69
2023/01/27 17:42:44;;;;;;;25.70;7.00;;;;;;;0.60;100.00;101616.36;5271351;54;1138765;-70
2023/01/27 17:47:50;;;;;;;27.52;12.40;;;;;;;0.49;100.00;101614.82;5237585;54;1139057;-70
2023/01/27 17:52:57;;;;;;;22.60;8.70;;;;;;;0.40;100.00;101635.83;5181220;55;1141630;-68
2023/01/27 17:58:16;;;;;;;18.85;7.60;;;;;;;0.29;100.00;101636.87;5201148;55;1138989;-70
2023/01/27 18:03:33;;;;;;;11.03;5.10;;;;;;;0.22;100.00;101640.90;5078615;56;1139235;-72
2023/01/27 18:08:39;;;;;;;33.93;10.60;;;;;;;0.13;100.00;101644.53;5165350;55;1139127;-70
2023/01/27 18:13:44;;;;;;;15.40;6.17;;;;;;;0.06;100.00;101648.09;5191926;55;1140822;-72
2023/01/27 18:18:51;;;;;;;19.83;5.63;;;;;;;0.04;100.00;101650.30;5182451;55;1138940;-70
2023/01/27 18:23:59;;;;;;;13.53;4.92;;;;;;;0.02;100.00;101650.77;5116567;55;1139115;-69
2023/01/27 18:29:24;;;;;;;14.47;5.43;;;;;;;-0.05;100.00;101653.48;5200758;54;1232068;-69
2023/01/27 18:34:36;;;;;;;17.37;5.95;;;;;;;-0.09;100.00;101658.30;5195749;54;1141581;-69
2023/01/27 18:39:42;;;;;;;14.33;4.53;;;;;;;-0.12;100.00;101665.28;5199093;54;1141230;-69
2023/01/27 18:44:53;;;;;;;14.37;5.67;;;;;;;-0.16;100.00;101666.23;5143940;54;1141854;-69
2023/01/27 18:50:20;;;;;;;13.60;5.37;;;;;;;-0.17;100.00;101675.78;5180357;54;1140823;-70
2023/01/27 18:55:30;;;;;;;12.77;4.53;;;;;;;-0.22;100.00;101672.38;5094183;55;1140858;-67
2023/01/27 19:00:58;;;;;;;13.75;6.58;;;;;;;-0.23;100.00;101673.70;5127291;55;1141074;-70
2023/01/27 19:06:05;;;;;;;11.00;3.90;;;;;;;-0.24;100.00;101674.58;5130194;55;1140846;-71
2023/01/27 19:11:16;;;;;;;11.40;4.60;;;;;;;-0.31;100.00;101675.56;5206798;55;1140909;-69
2023/01/27 19:16:22;;;;;;;11.10;3.70;;;;;;;-0.37;100.00;101685.16;5133810;55;1141285;-69
2023/01/27 19:21:28;;;;;;;8.53;4.03;;;;;;;-0.41;100.00;101690.41;5173531;54;1141000;-71
2023/01/27 19:26:34;;;;;;;12.20;4.77;;;;;;;-0.45;100.00;101690.88;5194655;54;1138890;-67
2023/01/27 19:31:41;;;;;;;6.73;3.60;;;;;;;-0.48;100.00;101698.75;5145112;55;1141617;-67
2023/01/27 19:36:47;;;;;;;9.30;4.07;;;;;;;-0.50;100.00;101710.89;5171619;55;1139112;-69
2023/01/27 19:41:53;;;;;;;14.53;6.33;;;;;;;-0.50;100.00;101713.50;5140076;55;1139109;-69
2023/01/27 19:46:58;;;;;;;10.93;4.03;;;;;;;-0.49;100.00;101713.91;5214579;54;1141059;-72
2023/01/27 19:52:04;;;;;;;12.57;4.83;;;;;;;-0.52;100.00;101710.05;5135351;55;1140907;-67
2023/01/27 19:57:15;;;;;;;16.77;7.03;;;;;;;-0.54;100.00;101708.34;5134322;55;1140923;-68
2023/01/27 20:02:22;;;;;;;18.37;4.90;;;;;;;-0.56;100.00;101708.36;5152744;55;1140896;-70
2023/01/27 20:07:29;;;;;;;7.37;2.87;;;;;;;-0.54;100.00;101716.14;5172031;54;1141622;-71
2023/01/27 20:12:36;;;;;;;8.87;3.30;;;;;;;-0.58;100.00;101725.70;5211451;54;1138995;-69
2023/01/27 20:17:43;;;;;;;7.15;2.87;;;;;;;-0.60;100.00;101731.36;5197796;55;1138982;-68
2023/01/27 20:22:50;;;;;;;13.23;4.60;;;;;;;-0.62;100.00;101741.38;5169903;55;1138854;-67
2023/01/27 20:27:59;;;;;;;5.03;2.70;;;;;;;-0.60;100.00;101743.48;5178601;55;1141178;-68
2023/01/27 20:33:06;;;;;;;16.93;5.13;;;;;;;-0.58;100.00;101737.40;5105649;55;1138840;-68
2023/01/27 20:38:12;;;;;;;10.37;4.60;;;;;;;-0.56;100.00;101733.48;5085110;56;1140838;-72
2023/01/27 20:43:19;;;;;;;11.07;5.00;;;;;;;-0.51;100.00;101736.90;5112820;54;1248118;-69
2023/01/27 20:48:25;;;;;;;18.73;8.40;;;;;;;-0.51;100.00;101733.86;5103584;56;1140953;-71
2023/01/27 20:53:35;;;;;;;18.92;8.53;;;;;;;-0.49;100.00;101738.60;5181332;54;1140951;-68
2023/01/27 20:58:41;;;;;;;26.00;8.10;;;;;;;-0.46;100.00;101737.70;5107831;55;1141374;-72
2023/01/27 21:03:49;;;;;;;11.60;4.75;;;;;;;-0.43;100.00;101742.40;5081288;55;1141209;-70
2023/01/27 21:08:55;;;;;;;6.17;3.53;;;;;;;-0.41;100.00;101739.34;5173637;55;1141002;-70
2023/01/27 21:14:01;;;;;;;12.60;5.30;;;;;;;-0.40;100.00;101737.17;5111957;54;1139018;-71
2023/01/27 21:19:08;;;;;;;18.57;8.17;;;;;;;-0.40;100.00;101742.37;5170587;55;1141145;-71
2023/01/27 21:24:16;;;;;;;14.46;5.42;;;;;;;-0.40;100.00;101744.11;4940414;57;1140997;-69
2023/01/27 21:29:22;;;;;;;10.80;5.20;;;;;;;-0.40;100.00;101735.02;4934615;57;1141022;-68
2023/01/27 21:34:28;;;;;;;10.37;4.53;;;;;;;-0.45;100.00;101742.86;5039090;56;1141272;-70
2023/01/27 21:39:33;;;;;;;8.98;3.42;;;;;;;-0.50;100.00;101732.98;4991640;56;1141130;-68
2023/01/27 21:50:03;;;;;;;14.27;4.70;;;;;;;-0.51;100.00;101745.55;5075530;56;1139027;-71
2023/01/27 21:55:24;;;;;;;12.43;5.47;;;;;;;-0.51;100.00;101749.45;5099026;55;1140868;-67
2023/01/27 22:00:30;;;;;;;6.57;3.50;;;;;;;-0.50;100.00;101748.58;5127361;55;1141039;-67
2023/01/27 22:05:38;;;;;;;11.63;4.03;;;;;;;-0.53;100.00;101741.25;5105103;56;1139038;-71
2023/01/27 22:10:43;;;;;;;8.83;3.90;;;;;;;-0.55;100.00;101744.30;5101088;56;1174639;-68
2023/01/27 22:15:52;;;;;;;11.50;4.57;;;;;;;-0.57;100.00;101738.26;5124266;56;1138965;-68
2023/01/27 22:21:02;;;;;;;19.07;6.40;;;;;;;-0.66;100.00;101724.95;5159019;54;1140914;-69
2023/01/27 22:26:08;;;;;;;7.47;3.80;;;;;;;-0.69;100.00;101735.81;5099776;55;1141024;-71
2023/01/27 22:31:14;;;;;;;9.80;3.80;;;;;;;-0.69;100.00;101728.02;5072859;56;1139771;-68
2023/01/27 22:36:20;;;;;;;7.25;3.70;;;;;;;-0.64;100.00;101730.14;5090213;56;1138857;-69
2023/01/27 22:41:27;;;;;;;14.45;8.18;;;;;;;-0.64;100.00;101732.30;5057349;56;1139411;-71
2023/01/27 22:46:33;;;;;;;15.03;4.70;;;;;;;-0.59;100.00;101730.92;5117762;55;1141013;-68
2023/01/27 22:51:39;;;;;;;4.53;2.73;;;;;;;-0.57;100.00;101720.07;5133960;55;1141098;-69
2023/01/27 22:56:46;;;;;;;6.50;3.53;;;;;;;-0.58;100.00;101721.81;5113180;55;1138874;-67
2023/01/27 23:01:53;;;;;;;11.07;4.10;;;;;;;-0.57;100.00;101724.83;5111035;55;1138779;-70
2023/01/27 23:06:59;;;;;;;9.33;3.17;;;;;;;-0.54;100.00;101729.99;5126031;55;1140990;-70
2023/01/27 23:12:05;;;;;;;7.87;3.50;;;;;;;-0.54;100.00;101736.48;5157689;55;1138820;-69
2023/01/27 23:17:10;;;;;;;6.17;2.70;;;;;;;-0.56;100.00;101718.75;5152765;55;1138980;-67
2023/01/27 23:22:16;;;;;;;5.00;2.20;;;;;;;-0.58;100.00;101715.75;5066230;55;1139049;-72
2023/01/27 23:27:23;;;;;;;6.00;2.80;;;;;;;-0.65;100.00;101711.09;5067280;56;1138928;-71
2023/01/27 23:32:29;;;;;;;15.83;6.03;;;;;;;-0.73;100.00;101709.88;5129465;55;1138694;-70
2023/01/27 23:37:35;;;;;;;10.00;4.60;;;;;;;-0.73;100.00;101699.92;5176507;54;1141190;-68
2023/01/27 23:42:41;;;;;;;7.20;3.53;;;;;;;-0.77;100.00;101704.75;5209935;54;1140915;-70
2023/01/27 23:47:47;;;;;;;10.80;3.47;;;;;;;-0.79;100.00;101700.88;5194722;55;1138974;-69
2023/01/27 23:52:53;;;;;;;4.75;2.30;;;;;;;-0.77;100.00;101695.66;5210052;55;1141067;-71